DOC95 ENNO-ZZZZ

Flight info

Callsign DOC95
Flight time N/A
Altitude 3000
Route SKIEN VINCINITY
Aircraft EC45/L-V/C

Departure

Time 2026-05-05 18:06
Airport Notodden Airport (ENNO)

Arrival

Time N/A
Airport ZZZZ
Time Latitude Longitude Altitude Speed Heading
2026-05-05 17:55 59.56458 9.21971 126 ft 0 kts 184°
2026-05-05 18:04 59.56453 9.21946 142 ft 5 kts 238°
2026-05-05 18:04 59.56406 9.21836 147 ft 15 kts 217°
2026-05-05 18:05 59.56352 9.21762 153 ft 3 kts 144°
2026-05-05 18:05 59.56338 9.21784 144 ft 3 kts 123°
2026-05-05 18:05 59.56295 9.21890 157 ft 32 kts 123°
2026-05-05 18:05 59.56058 9.22505 241 ft 71 kts 123°
2026-05-05 18:06 59.55745 9.23319 455 ft 76 kts 123°
2026-05-05 18:06 59.55529 9.23869 597 ft 77 kts 125°
2026-05-05 18:06 59.54978 9.25083 814 ft 101 kts 137°
2026-05-05 18:06 59.54365 9.25825 1052 ft 104 kts 151°
2026-05-05 18:07 59.53694 9.26346 1359 ft 104 kts 159°
2026-05-05 18:07 59.52992 9.26825 1636 ft 114 kts 160°
2026-05-05 18:07 59.52203 9.27336 1778 ft 123 kts 161°
2026-05-05 18:07 59.51368 9.27811 1949 ft 127 kts 163°
2026-05-05 18:08 59.50503 9.28223 1997 ft 129 kts 165°
2026-05-05 18:08 59.49609 9.28563 1990 ft 136 kts 168°
2026-05-05 18:08 59.48649 9.28888 2029 ft 144 kts 168°
2026-05-05 18:08 59.47643 9.29230 2026 ft 148 kts 168°
2026-05-05 18:09 59.46620 9.29582 2016 ft 149 kts 168°
2026-05-05 18:09 59.45599 9.29934 2007 ft 149 kts 169°
2026-05-05 18:09 59.44575 9.29899 2002 ft 145 kts 195°
2026-05-05 18:09 59.43689 9.29146 1980 ft 138 kts 207°
2026-05-05 18:10 59.42865 9.28263 2013 ft 135 kts 208°
2026-05-05 18:10 59.42033 9.27352 2008 ft 138 kts 208°
2026-05-05 18:10 59.41199 9.26426 2004 ft 137 kts 208°
2026-05-05 18:10 59.40366 9.25502 2004 ft 139 kts 208°
2026-05-05 18:11 59.39519 9.24555 2002 ft 140 kts 208°
2026-05-05 18:11 59.38689 9.23627 2003 ft 138 kts 208°
2026-05-05 18:11 59.37856 9.22712 1999 ft 138 kts 208°
2026-05-05 18:11 59.37004 9.21838 2004 ft 139 kts 202°
2026-05-05 18:12 59.36029 9.21644 2001 ft 145 kts 169°
2026-05-05 18:12 59.35047 9.22190 2002 ft 147 kts 157°
2026-05-05 18:12 59.34086 9.22845 2001 ft 145 kts 156°
2026-05-05 18:12 59.33130 9.23509 1999 ft 147 kts 157°
2026-05-05 18:13 59.32156 9.24135 1930 ft 146 kts 168°
2026-05-05 18:13 59.31166 9.23817 1581 ft 146 kts 207°
2026-05-05 18:13 59.30354 9.22608 1218 ft 147 kts 224°
2026-05-05 18:13 59.29760 9.21179 1046 ft 124 kts 236°
2026-05-05 18:14 59.29333 9.19825 789 ft 113 kts 245°
2026-05-05 18:14 59.29201 9.18367 567 ft 106 kts 273°
2026-05-05 18:14 59.29308 9.16996 503 ft 99 kts 279°
2026-05-05 18:14 59.29427 9.15725 444 ft 90 kts 278°
2026-05-05 18:15 59.29533 9.14633 404 ft 65 kts 288°
2026-05-05 18:15 59.29652 9.14009 276 ft 39 kts 295°
2026-05-05 18:15 59.29716 9.13638 240 ft 11 kts 291°
2026-05-05 18:15 59.29720 9.13605 230 ft 1 kts 290°
2026-05-05 18:16 59.29728 9.13588 237 ft 3 kts 294°
2026-05-05 18:16 59.29722 9.13593 231 ft 1 kts 284°
2026-05-05 18:16 59.29721 9.13596 254 ft 1 kts 284°
2026-05-05 18:16 59.29722 9.13597 260 ft 0 kts 284°
2026-05-05 18:17 59.29722 9.13598 262 ft 0 kts 284°
2026-05-05 18:17 59.29723 9.13597 262 ft 0 kts 284°
2026-05-05 18:17 59.29723 9.13596 262 ft 0 kts 284°
2026-05-05 18:17 59.29723 9.13594 262 ft 0 kts 284°
2026-05-05 18:18 59.29723 9.13596 260 ft 0 kts 284°
2026-05-05 18:18 59.29724 9.13593 263 ft 0 kts 284°
2026-05-05 18:18 59.29724 9.13594 260 ft 0 kts 284°